sensor_id;sensor_type;location;lat;lon;timestamp;P1;durP1;ratioP1;P2;durP2;ratioP2
51654;SDS011;37732;53.106;7.030;2023-12-04T00:00:25;28.38;;;21.13;;
51654;SDS011;37732;53.106;7.030;2023-12-04T00:02:52;27.92;;;20.92;;
51654;SDS011;37732;53.106;7.030;2023-12-04T00:05:17;29.42;;;22.95;;
51654;SDS011;37732;53.106;7.030;2023-12-04T00:07:43;26.58;;;20.65;;
51654;SDS011;37732;53.106;7.030;2023-12-04T00:10:09;30.83;;;22.13;;
51654;SDS011;37732;53.106;7.030;2023-12-04T00:12:34;30.83;;;22.60;;
51654;SDS011;37732;53.106;7.030;2023-12-04T00:15:00;26.55;;;21.20;;
51654;SDS011;37732;53.106;7.030;2023-12-04T00:17:26;27.13;;;18.65;;
51654;SDS011;37732;53.106;7.030;2023-12-04T00:19:51;28.45;;;20.83;;
51654;SDS011;37732;53.106;7.030;2023-12-04T00:22:17;29.60;;;21.48;;
51654;SDS011;37732;53.106;7.030;2023-12-04T00:24:43;28.35;;;20.95;;
51654;SDS011;37732;53.106;7.030;2023-12-04T00:27:08;28.25;;;21.27;;
51654;SDS011;37732;53.106;7.030;2023-12-04T00:29:34;30.13;;;22.65;;
51654;SDS011;37732;53.106;7.030;2023-12-04T00:32:00;33.42;;;24.02;;
51654;SDS011;37732;53.106;7.030;2023-12-04T00:34:25;26.50;;;21.33;;
51654;SDS011;37732;53.106;7.030;2023-12-04T00:36:51;26.40;;;21.65;;
51654;SDS011;37732;53.106;7.030;2023-12-04T00:39:16;31.25;;;22.42;;
51654;SDS011;37732;53.106;7.030;2023-12-04T00:41:42;29.50;;;21.70;;
51654;SDS011;37732;53.106;7.030;2023-12-04T00:44:08;26.00;;;21.00;;
51654;SDS011;37732;53.106;7.030;2023-12-04T00:46:34;30.50;;;22.13;;
51654;SDS011;37732;53.106;7.030;2023-12-04T00:48:59;28.85;;;22.20;;
51654;SDS011;37732;53.106;7.030;2023-12-04T00:51:25;28.73;;;22.92;;
51654;SDS011;37732;53.106;7.030;2023-12-04T00:53:52;29.73;;;22.90;;
51654;SDS011;37732;53.106;7.030;2023-12-04T00:56:18;28.77;;;21.30;;
51654;SDS011;37732;53.106;7.030;2023-12-04T00:58:45;27.05;;;22.58;;
51654;SDS011;37732;53.106;7.030;2023-12-04T01:01:11;28.88;;;21.58;;
51654;SDS011;37732;53.106;7.030;2023-12-04T01:03:37;29.58;;;21.52;;
51654;SDS011;37732;53.106;7.030;2023-12-04T01:06:03;28.92;;;22.05;;
51654;SDS011;37732;53.106;7.030;2023-12-04T01:08:29;32.83;;;24.20;;
51654;SDS011;37732;53.106;7.030;2023-12-04T01:10:55;30.63;;;23.08;;
51654;SDS011;37732;53.106;7.030;2023-12-04T01:13:22;31.45;;;24.42;;
51654;SDS011;37732;53.106;7.030;2023-12-04T01:15:48;31.35;;;23.92;;
51654;SDS011;37732;53.106;7.030;2023-12-04T01:18:20;31.77;;;23.13;;
51654;SDS011;37732;53.106;7.030;2023-12-04T01:20:46;29.45;;;22.40;;
51654;SDS011;37732;53.106;7.030;2023-12-04T01:23:11;29.40;;;23.60;;
51654;SDS011;37732;53.106;7.030;2023-12-04T01:25:37;32.40;;;23.17;;
51654;SDS011;37732;53.106;7.030;2023-12-04T01:28:03;32.72;;;23.38;;
51654;SDS011;37732;53.106;7.030;2023-12-04T01:30:28;29.50;;;24.58;;
51654;SDS011;37732;53.106;7.030;2023-12-04T01:32:54;31.13;;;24.27;;
51654;SDS011;37732;53.106;7.030;2023-12-04T01:35:19;31.88;;;23.50;;
51654;SDS011;37732;53.106;7.030;2023-12-04T01:37:45;29.23;;;22.60;;
51654;SDS011;37732;53.106;7.030;2023-12-04T01:40:11;33.08;;;24.67;;
51654;SDS011;37732;53.106;7.030;2023-12-04T01:42:37;31.35;;;22.95;;
51654;SDS011;37732;53.106;7.030;2023-12-04T01:45:02;32.60;;;22.85;;
51654;SDS011;37732;53.106;7.030;2023-12-04T01:47:28;30.70;;;23.38;;
51654;SDS011;37732;53.106;7.030;2023-12-04T01:49:54;29.23;;;23.08;;
51654;SDS011;37732;53.106;7.030;2023-12-04T01:52:20;29.20;;;22.50;;
51654;SDS011;37732;53.106;7.030;2023-12-04T01:54:45;31.35;;;23.83;;
51654;SDS011;37732;53.106;7.030;2023-12-04T01:57:11;29.60;;;23.25;;
51654;SDS011;37732;53.106;7.030;2023-12-04T01:59:37;30.50;;;24.45;;
51654;SDS011;37732;53.106;7.030;2023-12-04T02:02:03;29.60;;;23.02;;
51654;SDS011;37732;53.106;7.030;2023-12-04T02:04:30;30.83;;;24.00;;
51654;SDS011;37732;53.106;7.030;2023-12-04T02:06:57;29.27;;;21.83;;
51654;SDS011;37732;53.106;7.030;2023-12-04T02:09:22;29.52;;;22.98;;
51654;SDS011;37732;53.106;7.030;2023-12-04T02:11:48;30.90;;;24.08;;
51654;SDS011;37732;53.106;7.030;2023-12-04T02:14:14;31.48;;;24.17;;
51654;SDS011;37732;53.106;7.030;2023-12-04T02:16:40;33.45;;;26.02;;
51654;SDS011;37732;53.106;7.030;2023-12-04T02:19:07;31.67;;;23.48;;
51654;SDS011;37732;53.106;7.030;2023-12-04T02:21:34;27.88;;;18.98;;
51654;SDS011;37732;53.106;7.030;2023-12-04T02:24:00;32.72;;;24.27;;
51654;SDS011;37732;53.106;7.030;2023-12-04T02:26:28;32.33;;;25.35;;
51654;SDS011;37732;53.106;7.030;2023-12-04T02:29:06;31.30;;;24.67;;
51654;SDS011;37732;53.106;7.030;2023-12-04T02:31:36;32.20;;;24.92;;
51654;SDS011;37732;53.106;7.030;2023-12-04T02:34:04;32.05;;;24.50;;
51654;SDS011;37732;53.106;7.030;2023-12-04T02:36:32;32.80;;;24.98;;
51654;SDS011;37732;53.106;7.030;2023-12-04T02:39:00;33.50;;;24.65;;
51654;SDS011;37732;53.106;7.030;2023-12-04T02:41:27;32.13;;;24.65;;
51654;SDS011;37732;53.106;7.030;2023-12-04T02:43:52;34.58;;;25.25;;
51654;SDS011;37732;53.106;7.030;2023-12-04T02:46:18;34.05;;;26.40;;
51654;SDS011;37732;53.106;7.030;2023-12-04T02:48:44;39.45;;;28.95;;
51654;SDS011;37732;53.106;7.030;2023-12-04T02:51:10;34.08;;;26.10;;
51654;SDS011;37732;53.106;7.030;2023-12-04T02:53:36;33.42;;;24.77;;
51654;SDS011;37732;53.106;7.030;2023-12-04T02:56:02;33.08;;;26.08;;
51654;SDS011;37732;53.106;7.030;2023-12-04T02:58:27;31.80;;;24.88;;
51654;SDS011;37732;53.106;7.030;2023-12-04T03:00:53;32.55;;;23.38;;
51654;SDS011;37732;53.106;7.030;2023-12-04T03:03:19;31.90;;;23.48;;
51654;SDS011;37732;53.106;7.030;2023-12-04T03:05:44;31.63;;;24.25;;
51654;SDS011;37732;53.106;7.030;2023-12-04T03:08:10;32.13;;;24.70;;
51654;SDS011;37732;53.106;7.030;2023-12-04T03:10:36;31.35;;;23.67;;
51654;SDS011;37732;53.106;7.030;2023-12-04T03:13:01;32.20;;;24.48;;
51654;SDS011;37732;53.106;7.030;2023-12-04T03:15:27;31.33;;;23.40;;
51654;SDS011;37732;53.106;7.030;2023-12-04T03:17:54;35.80;;;25.80;;
51654;SDS011;37732;53.106;7.030;2023-12-04T03:20:20;32.78;;;24.92;;
51654;SDS011;37732;53.106;7.030;2023-12-04T03:22:46;34.83;;;25.40;;
51654;SDS011;37732;53.106;7.030;2023-12-04T03:25:14;32.20;;;24.23;;
51654;SDS011;37732;53.106;7.030;2023-12-04T03:27:40;32.45;;;24.58;;
51654;SDS011;37732;53.106;7.030;2023-12-04T03:30:06;30.92;;;23.98;;
51654;SDS011;37732;53.106;7.030;2023-12-04T03:32:32;31.38;;;24.20;;
51654;SDS011;37732;53.106;7.030;2023-12-04T03:34:57;30.45;;;24.23;;
51654;SDS011;37732;53.106;7.030;2023-12-04T03:37:23;33.50;;;24.92;;
51654;SDS011;37732;53.106;7.030;2023-12-04T03:39:50;27.25;;;22.25;;
51654;SDS011;37732;53.106;7.030;2023-12-04T03:42:15;33.67;;;24.45;;
51654;SDS011;37732;53.106;7.030;2023-12-04T03:44:41;31.38;;;25.58;;
51654;SDS011;37732;53.106;7.030;2023-12-04T03:47:07;33.38;;;25.70;;
51654;SDS011;37732;53.106;7.030;2023-12-04T03:49:32;33.70;;;24.17;;
51654;SDS011;37732;53.106;7.030;2023-12-04T03:51:58;31.88;;;24.90;;
51654;SDS011;37732;53.106;7.030;2023-12-04T03:54:24;33.78;;;24.35;;
51654;SDS011;37732;53.106;7.030;2023-12-04T03:56:49;30.17;;;24.27;;
51654;SDS011;37732;53.106;7.030;2023-12-04T03:59:15;32.40;;;24.15;;
51654;SDS011;37732;53.106;7.030;2023-12-04T04:01:41;30.73;;;23.70;;
51654;SDS011;37732;53.106;7.030;2023-12-04T04:04:06;31.60;;;23.95;;
51654;SDS011;37732;53.106;7.030;2023-12-04T04:06:32;32.28;;;24.58;;
51654;SDS011;37732;53.106;7.030;2023-12-04T04:08:58;30.52;;;23.15;;
51654;SDS011;37732;53.106;7.030;2023-12-04T04:11:23;31.98;;;24.20;;
51654;SDS011;37732;53.106;7.030;2023-12-04T04:13:49;31.27;;;22.98;;
51654;SDS011;37732;53.106;7.030;2023-12-04T04:16:15;33.45;;;25.30;;
51654;SDS011;37732;53.106;7.030;2023-12-04T04:18:41;31.15;;;23.08;;
51654;SDS011;37732;53.106;7.030;2023-12-04T04:21:08;30.00;;;24.23;;
51654;SDS011;37732;53.106;7.030;2023-12-04T04:23:34;32.83;;;24.17;;
51654;SDS011;37732;53.106;7.030;2023-12-04T04:26:00;33.33;;;25.50;;
51654;SDS011;37732;53.106;7.030;2023-12-04T04:28:27;30.45;;;22.25;;
51654;SDS011;37732;53.106;7.030;2023-12-04T04:30:53;28.75;;;22.10;;
51654;SDS011;37732;53.106;7.030;2023-12-04T04:33:21;30.90;;;22.95;;
51654;SDS011;37732;53.106;7.030;2023-12-04T04:35:47;31.48;;;23.33;;
51654;SDS011;37732;53.106;7.030;2023-12-04T04:38:12;32.80;;;24.85;;
51654;SDS011;37732;53.106;7.030;2023-12-04T04:40:38;33.20;;;24.02;;
51654;SDS011;37732;53.106;7.030;2023-12-04T04:43:07;31.52;;;23.70;;
51654;SDS011;37732;53.106;7.030;2023-12-04T04:45:33;31.27;;;24.10;;
51654;SDS011;37732;53.106;7.030;2023-12-04T04:47:59;29.95;;;22.98;;
51654;SDS011;37732;53.106;7.030;2023-12-04T04:50:24;30.80;;;23.90;;
51654;SDS011;37732;53.106;7.030;2023-12-04T04:52:50;32.17;;;23.45;;
51654;SDS011;37732;53.106;7.030;2023-12-04T04:55:16;32.92;;;24.60;;
51654;SDS011;37732;53.106;7.030;2023-12-04T04:57:41;30.92;;;23.00;;
51654;SDS011;37732;53.106;7.030;2023-12-04T05:00:07;28.85;;;22.25;;
51654;SDS011;37732;53.106;7.030;2023-12-04T05:02:33;29.95;;;23.00;;
51654;SDS011;37732;53.106;7.030;2023-12-04T05:05:02;30.00;;;23.25;;
51654;SDS011;37732;53.106;7.030;2023-12-04T05:07:28;31.60;;;23.65;;
51654;SDS011;37732;53.106;7.030;2023-12-04T05:09:54;30.55;;;22.48;;
51654;SDS011;37732;53.106;7.030;2023-12-04T05:12:20;32.80;;;23.58;;
51654;SDS011;37732;53.106;7.030;2023-12-04T05:14:45;28.42;;;22.40;;
51654;SDS011;37732;53.106;7.030;2023-12-04T05:17:11;34.63;;;25.60;;
51654;SDS011;37732;53.106;7.030;2023-12-04T05:19:38;30.65;;;22.15;;
51654;SDS011;37732;53.106;7.030;2023-12-04T05:22:03;32.70;;;23.90;;
51654;SDS011;37732;53.106;7.030;2023-12-04T05:24:32;32.00;;;24.83;;
51654;SDS011;37732;53.106;7.030;2023-12-04T05:26:58;31.63;;;24.08;;
51654;SDS011;37732;53.106;7.030;2023-12-04T05:29:25;28.95;;;22.13;;
51654;SDS011;37732;53.106;7.030;2023-12-04T05:31:50;27.98;;;22.02;;
51654;SDS011;37732;53.106;7.030;2023-12-04T05:34:16;27.63;;;20.77;;
51654;SDS011;37732;53.106;7.030;2023-12-04T05:36:45;28.30;;;21.65;;
51654;SDS011;37732;53.106;7.030;2023-12-04T05:39:11;29.88;;;23.33;;
51654;SDS011;37732;53.106;7.030;2023-12-04T05:41:37;29.70;;;22.50;;
51654;SDS011;37732;53.106;7.030;2023-12-04T05:44:02;28.80;;;21.15;;
51654;SDS011;37732;53.106;7.030;2023-12-04T05:46:28;30.73;;;23.33;;
51654;SDS011;37732;53.106;7.030;2023-12-04T05:48:54;30.02;;;22.30;;
51654;SDS011;37732;53.106;7.030;2023-12-04T05:51:19;30.60;;;22.75;;
51654;SDS011;37732;53.106;7.030;2023-12-04T05:53:49;28.42;;;20.35;;
51654;SDS011;37732;53.106;7.030;2023-12-04T05:56:15;28.67;;;20.35;;
51654;SDS011;37732;53.106;7.030;2023-12-04T05:58:41;28.05;;;22.38;;
51654;SDS011;37732;53.106;7.030;2023-12-04T06:01:06;28.35;;;22.45;;
51654;SDS011;37732;53.106;7.030;2023-12-04T06:03:32;29.83;;;22.25;;
51654;SDS011;37732;53.106;7.030;2023-12-04T06:05:58;30.80;;;22.80;;
51654;SDS011;37732;53.106;7.030;2023-12-04T06:08:25;24.88;;;15.95;;
51654;SDS011;37732;53.106;7.030;2023-12-04T06:10:50;30.63;;;23.02;;
51654;SDS011;37732;53.106;7.030;2023-12-04T06:13:16;29.23;;;22.13;;
51654;SDS011;37732;53.106;7.030;2023-12-04T06:15:43;28.50;;;21.83;;
51654;SDS011;37732;53.106;7.030;2023-12-04T06:18:10;27.80;;;21.55;;
51654;SDS011;37732;53.106;7.030;2023-12-04T06:20:35;28.55;;;21.88;;
51654;SDS011;37732;53.106;7.030;2023-12-04T06:23:01;29.67;;;21.73;;
51654;SDS011;37732;53.106;7.030;2023-12-04T06:25:27;29.23;;;20.80;;
51654;SDS011;37732;53.106;7.030;2023-12-04T06:27:53;28.77;;;22.25;;
51654;SDS011;37732;53.106;7.030;2023-12-04T06:30:19;29.45;;;21.92;;
51654;SDS011;37732;53.106;7.030;2023-12-04T06:32:45;29.05;;;21.58;;
51654;SDS011;37732;53.106;7.030;2023-12-04T06:35:12;27.20;;;21.20;;
51654;SDS011;37732;53.106;7.030;2023-12-04T06:37:38;29.67;;;22.48;;
51654;SDS011;37732;53.106;7.030;2023-12-04T06:40:05;31.45;;;21.63;;
51654;SDS011;37732;53.106;7.030;2023-12-04T06:42:34;26.90;;;21.23;;
51654;SDS011;37732;53.106;7.030;2023-12-04T06:45:00;27.63;;;20.15;;
51654;SDS011;37732;53.106;7.030;2023-12-04T06:47:26;28.13;;;20.58;;
51654;SDS011;37732;53.106;7.030;2023-12-04T06:49:53;27.75;;;20.52;;
51654;SDS011;37732;53.106;7.030;2023-12-04T06:52:19;29.33;;;21.48;;
51654;SDS011;37732;53.106;7.030;2023-12-04T06:54:45;28.88;;;21.00;;
51654;SDS011;37732;53.106;7.030;2023-12-04T06:57:10;30.35;;;22.13;;
51654;SDS011;37732;53.106;7.030;2023-12-04T06:59:36;30.55;;;22.20;;
51654;SDS011;37732;53.106;7.030;2023-12-04T07:02:02;28.27;;;21.73;;
51654;SDS011;37732;53.106;7.030;2023-12-04T07:04:28;29.27;;;21.85;;
51654;SDS011;37732;53.106;7.030;2023-12-04T07:06:54;28.27;;;21.27;;
51654;SDS011;37732;53.106;7.030;2023-12-04T07:09:19;27.45;;;21.35;;
51654;SDS011;37732;53.106;7.030;2023-12-04T07:11:45;28.08;;;21.48;;
51654;SDS011;37732;53.106;7.030;2023-12-04T07:14:11;26.08;;;20.65;;
51654;SDS011;37732;53.106;7.030;2023-12-04T07:16:40;27.92;;;20.55;;
51654;SDS011;37732;53.106;7.030;2023-12-04T07:19:07;28.08;;;21.25;;
51654;SDS011;37732;53.106;7.030;2023-12-04T07:21:34;26.40;;;19.55;;
51654;SDS011;37732;53.106;7.030;2023-12-04T07:24:01;25.38;;;20.58;;
51654;SDS011;37732;53.106;7.030;2023-12-04T07:26:27;26.25;;;20.05;;
51654;SDS011;37732;53.106;7.030;2023-12-04T07:28:53;23.75;;;18.08;;
51654;SDS011;37732;53.106;7.030;2023-12-04T07:31:19;25.38;;;19.83;;
51654;SDS011;37732;53.106;7.030;2023-12-04T07:33:44;25.80;;;20.05;;
51654;SDS011;37732;53.106;7.030;2023-12-04T07:36:10;22.92;;;19.02;;
51654;SDS011;37732;53.106;7.030;2023-12-04T07:38:36;26.02;;;19.75;;
51654;SDS011;37732;53.106;7.030;2023-12-04T07:41:02;22.45;;;17.95;;
51654;SDS011;37732;53.106;7.030;2023-12-04T07:43:28;21.98;;;17.40;;
51654;SDS011;37732;53.106;7.030;2023-12-04T07:45:55;24.98;;;18.73;;
51654;SDS011;37732;53.106;7.030;2023-12-04T07:48:21;23.90;;;18.98;;
51654;SDS011;37732;53.106;7.030;2023-12-04T07:50:47;24.95;;;17.98;;
51654;SDS011;37732;53.106;7.030;2023-12-04T07:53:13;23.15;;;17.70;;
51654;SDS011;37732;53.106;7.030;2023-12-04T07:55:39;22.60;;;17.30;;
51654;SDS011;37732;53.106;7.030;2023-12-04T07:58:04;20.83;;;16.15;;
51654;SDS011;37732;53.106;7.030;2023-12-04T08:00:30;22.35;;;17.55;;
51654;SDS011;37732;53.106;7.030;2023-12-04T08:02:56;23.85;;;16.98;;
51654;SDS011;37732;53.106;7.030;2023-12-04T08:05:21;22.65;;;16.67;;
51654;SDS011;37732;53.106;7.030;2023-12-04T08:07:47;19.35;;;15.50;;
51654;SDS011;37732;53.106;7.030;2023-12-04T08:10:13;19.77;;;15.50;;
51654;SDS011;37732;53.106;7.030;2023-12-04T08:12:39;19.00;;;15.38;;
51654;SDS011;37732;53.106;7.030;2023-12-04T08:15:05;20.02;;;15.13;;
51654;SDS011;37732;53.106;7.030;2023-12-04T08:17:31;19.05;;;14.98;;
51654;SDS011;37732;53.106;7.030;2023-12-04T08:19:56;18.90;;;14.80;;
51654;SDS011;37732;53.106;7.030;2023-12-04T08:22:22;17.98;;;14.93;;
51654;SDS011;37732;53.106;7.030;2023-12-04T08:24:48;17.83;;;14.43;;
51654;SDS011;37732;53.106;7.030;2023-12-04T08:27:13;18.63;;;15.18;;
51654;SDS011;37732;53.106;7.030;2023-12-04T08:29:39;20.15;;;15.35;;
51654;SDS011;37732;53.106;7.030;2023-12-04T08:32:05;16.83;;;13.68;;
51654;SDS011;37732;53.106;7.030;2023-12-04T08:34:31;17.50;;;13.45;;
51654;SDS011;37732;53.106;7.030;2023-12-04T08:36:57;17.27;;;14.27;;
51654;SDS011;37732;53.106;7.030;2023-12-04T08:39:23;16.35;;;13.05;;
51654;SDS011;37732;53.106;7.030;2023-12-04T08:41:48;17.40;;;12.75;;
51654;SDS011;37732;53.106;7.030;2023-12-04T08:44:14;19.23;;;15.60;;
51654;SDS011;37732;53.106;7.030;2023-12-04T08:46:40;21.70;;;16.45;;
51654;SDS011;37732;53.106;7.030;2023-12-04T08:49:06;18.35;;;13.60;;
51654;SDS011;37732;53.106;7.030;2023-12-04T08:51:32;18.15;;;14.43;;
51654;SDS011;37732;53.106;7.030;2023-12-04T08:53:58;18.25;;;13.27;;
51654;SDS011;37732;53.106;7.030;2023-12-04T08:56:23;15.20;;;12.27;;
51654;SDS011;37732;53.106;7.030;2023-12-04T08:58:49;16.85;;;13.60;;
51654;SDS011;37732;53.106;7.030;2023-12-04T09:01:17;16.40;;;12.00;;
51654;SDS011;37732;53.106;7.030;2023-12-04T09:03:43;16.00;;;12.05;;
51654;SDS011;37732;53.106;7.030;2023-12-04T09:06:09;17.42;;;13.65;;
51654;SDS011;37732;53.106;7.030;2023-12-04T09:08:35;16.63;;;13.43;;
51654;SDS011;37732;53.106;7.030;2023-12-04T09:11:00;17.27;;;13.38;;
51654;SDS011;37732;53.106;7.030;2023-12-04T09:13:26;16.42;;;13.10;;
51654;SDS011;37732;53.106;7.030;2023-12-04T09:15:52;18.42;;;13.68;;
51654;SDS011;37732;53.106;7.030;2023-12-04T09:18:17;19.27;;;13.52;;
51654;SDS011;37732;53.106;7.030;2023-12-04T09:20:43;16.05;;;13.43;;
51654;SDS011;37732;53.106;7.030;2023-12-04T09:23:09;17.63;;;12.55;;
51654;SDS011;37732;53.106;7.030;2023-12-04T09:25:35;15.82;;;12.65;;
51654;SDS011;37732;53.106;7.030;2023-12-04T09:28:01;15.10;;;13.13;;
51654;SDS011;37732;53.106;7.030;2023-12-04T09:30:27;15.10;;;12.70;;
51654;SDS011;37732;53.106;7.030;2023-12-04T09:32:53;18.17;;;13.45;;
51654;SDS011;37732;53.106;7.030;2023-12-04T09:35:19;16.52;;;13.20;;
51654;SDS011;37732;53.106;7.030;2023-12-04T09:37:45;23.33;;;14.23;;
51654;SDS011;37732;53.106;7.030;2023-12-04T09:40:11;16.25;;;12.35;;
51654;SDS011;37732;53.106;7.030;2023-12-04T09:42:37;16.23;;;12.73;;
51654;SDS011;37732;53.106;7.030;2023-12-04T09:45:05;16.17;;;12.85;;
51654;SDS011;37732;53.106;7.030;2023-12-04T09:47:32;15.63;;;12.45;;
51654;SDS011;37732;53.106;7.030;2023-12-04T09:49:59;16.52;;;12.88;;
51654;SDS011;37732;53.106;7.030;2023-12-04T09:52:27;14.52;;;12.20;;
51654;SDS011;37732;53.106;7.030;2023-12-04T09:54:53;13.07;;;9.95;;
51654;SDS011;37732;53.106;7.030;2023-12-04T09:57:19;15.80;;;11.30;;
51654;SDS011;37732;53.106;7.030;2023-12-04T09:59:47;13.25;;;11.07;;
51654;SDS011;37732;53.106;7.030;2023-12-04T10:02:13;14.32;;;11.20;;
51654;SDS011;37732;53.106;7.030;2023-12-04T10:04:39;15.80;;;10.95;;
51654;SDS011;37732;53.106;7.030;2023-12-04T10:07:06;14.57;;;10.73;;
51654;SDS011;37732;53.106;7.030;2023-12-04T10:09:32;14.52;;;10.70;;
51654;SDS011;37732;53.106;7.030;2023-12-04T10:11:58;13.82;;;10.45;;
51654;SDS011;37732;53.106;7.030;2023-12-04T10:14:24;13.93;;;10.65;;
51654;SDS011;37732;53.106;7.030;2023-12-04T10:16:50;14.43;;;11.85;;
51654;SDS011;37732;53.106;7.030;2023-12-04T10:19:24;12.38;;;9.90;;
51654;SDS011;37732;53.106;7.030;2023-12-04T10:24:33;14.93;;;11.02;;
51654;SDS011;37732;53.106;7.030;2023-12-04T10:27:00;16.27;;;11.17;;
51654;SDS011;37732;53.106;7.030;2023-12-04T10:29:40;13.13;;;10.57;;
51654;SDS011;37732;53.106;7.030;2023-12-04T10:32:07;14.57;;;10.80;;
51654;SDS011;37732;53.106;7.030;2023-12-04T10:34:33;13.02;;;10.65;;
51654;SDS011;37732;53.106;7.030;2023-12-04T10:36:59;14.63;;;10.68;;
51654;SDS011;37732;53.106;7.030;2023-12-04T10:39:25;13.50;;;9.98;;
51654;SDS011;37732;53.106;7.030;2023-12-04T10:42:02;14.45;;;10.98;;
51654;SDS011;37732;53.106;7.030;2023-12-04T10:44:30;13.90;;;10.30;;
51654;SDS011;37732;53.106;7.030;2023-12-04T10:46:57;13.68;;;10.32;;
51654;SDS011;37732;53.106;7.030;2023-12-04T10:49:26;13.30;;;10.32;;
51654;SDS011;37732;53.106;7.030;2023-12-04T10:51:57;13.48;;;10.38;;
51654;SDS011;37732;53.106;7.030;2023-12-04T10:54:26;15.82;;;12.77;;
51654;SDS011;37732;53.106;7.030;2023-12-04T10:56:52;13.18;;;10.35;;
51654;SDS011;37732;53.106;7.030;2023-12-04T10:59:21;13.40;;;9.80;;
51654;SDS011;37732;53.106;7.030;2023-12-04T11:01:52;13.40;;;10.18;;
51654;SDS011;37732;53.106;7.030;2023-12-04T11:04:20;13.88;;;10.95;;
51654;SDS011;37732;53.106;7.030;2023-12-04T11:06:52;14.38;;;10.73;;
51654;SDS011;37732;53.106;7.030;2023-12-04T11:09:20;11.77;;;9.85;;
51654;SDS011;37732;53.106;7.030;2023-12-04T11:11:48;13.05;;;10.35;;
51654;SDS011;37732;53.106;7.030;2023-12-04T11:14:20;14.50;;;11.35;;
51654;SDS011;37732;53.106;7.030;2023-12-04T11:16:48;11.65;;;9.75;;
51654;SDS011;37732;53.106;7.030;2023-12-04T11:22:12;13.70;;;10.02;;
51654;SDS011;37732;53.106;7.030;2023-12-04T11:24:40;15.20;;;10.80;;
51654;SDS011;37732;53.106;7.030;2023-12-04T11:27:06;13.70;;;10.80;;
51654;SDS011;37732;53.106;7.030;2023-12-04T11:29:33;13.65;;;10.63;;
51654;SDS011;37732;53.106;7.030;2023-12-04T11:31:59;13.73;;;10.43;;
51654;SDS011;37732;53.106;7.030;2023-12-04T11:34:25;14.02;;;10.98;;
51654;SDS011;37732;53.106;7.030;2023-12-04T11:36:50;13.05;;;10.48;;
51654;SDS011;37732;53.106;7.030;2023-12-04T11:39:18;13.40;;;10.73;;
51654;SDS011;37732;53.106;7.030;2023-12-04T11:41:44;13.85;;;10.60;;
51654;SDS011;37732;53.106;7.030;2023-12-04T11:44:14;13.43;;;10.27;;
51654;SDS011;37732;53.106;7.030;2023-12-04T11:46:54;13.68;;;11.57;;
51654;SDS011;37732;53.106;7.030;2023-12-04T11:49:26;13.43;;;11.10;;
51654;SDS011;37732;53.106;7.030;2023-12-04T11:51:59;14.43;;;11.32;;
51654;SDS011;37732;53.106;7.030;2023-12-04T11:59:40;14.27;;;10.68;;
51654;SDS011;37732;53.106;7.030;2023-12-04T12:02:07;14.00;;;11.52;;
51654;SDS011;37732;53.106;7.030;2023-12-04T12:04:34;13.38;;;10.75;;
51654;SDS011;37732;53.106;7.030;2023-12-04T12:07:00;16.17;;;10.70;;
51654;SDS011;37732;53.106;7.030;2023-12-04T12:09:27;14.75;;;11.18;;
51654;SDS011;37732;53.106;7.030;2023-12-04T12:11:54;15.15;;;11.77;;
51654;SDS011;37732;53.106;7.030;2023-12-04T12:14:23;14.82;;;10.90;;
51654;SDS011;37732;53.106;7.030;2023-12-04T12:16:48;15.48;;;11.35;;
51654;SDS011;37732;53.106;7.030;2023-12-04T12:19:14;13.43;;;10.73;;
51654;SDS011;37732;53.106;7.030;2023-12-04T12:21:40;16.08;;;11.32;;
51654;SDS011;37732;53.106;7.030;2023-12-04T12:24:06;13.98;;;10.60;;
51654;SDS011;37732;53.106;7.030;2023-12-04T12:26:32;14.30;;;10.93;;
51654;SDS011;37732;53.106;7.030;2023-12-04T12:28:58;13.85;;;10.70;;
51654;SDS011;37732;53.106;7.030;2023-12-04T12:31:24;15.32;;;10.73;;
51654;SDS011;37732;53.106;7.030;2023-12-04T12:33:50;14.55;;;11.35;;
51654;SDS011;37732;53.106;7.030;2023-12-04T12:36:17;13.35;;;10.82;;
51654;SDS011;37732;53.106;7.030;2023-12-04T12:38:43;15.13;;;11.48;;
51654;SDS011;37732;53.106;7.030;2023-12-04T12:41:14;15.55;;;11.77;;
51654;SDS011;37732;53.106;7.030;2023-12-04T12:43:43;13.80;;;10.82;;
51654;SDS011;37732;53.106;7.030;2023-12-04T12:46:10;14.82;;;11.27;;
51654;SDS011;37732;53.106;7.030;2023-12-04T12:48:36;13.57;;;10.43;;
51654;SDS011;37732;53.106;7.030;2023-12-04T12:51:02;13.73;;;11.13;;
51654;SDS011;37732;53.106;7.030;2023-12-04T12:53:28;13.63;;;11.13;;
51654;SDS011;37732;53.106;7.030;2023-12-04T12:55:57;13.35;;;11.02;;
51654;SDS011;37732;53.106;7.030;2023-12-04T12:58:25;14.73;;;11.95;;
51654;SDS011;37732;53.106;7.030;2023-12-04T13:00:51;13.50;;;10.77;;
51654;SDS011;37732;53.106;7.030;2023-12-04T13:03:17;13.15;;;10.23;;
51654;SDS011;37732;53.106;7.030;2023-12-04T13:05:44;12.98;;;10.57;;
51654;SDS011;37732;53.106;7.030;2023-12-04T13:08:10;13.15;;;10.27;;
51654;SDS011;37732;53.106;7.030;2023-12-04T13:10:40;13.65;;;10.40;;
51654;SDS011;37732;53.106;7.030;2023-12-04T13:13:10;12.77;;;9.93;;
51654;SDS011;37732;53.106;7.030;2023-12-04T13:15:42;13.13;;;10.07;;
51654;SDS011;37732;53.106;7.030;2023-12-04T13:18:08;11.98;;;9.98;;
51654;SDS011;37732;53.106;7.030;2023-12-04T13:20:34;13.30;;;10.70;;
51654;SDS011;37732;53.106;7.030;2023-12-04T13:23:00;13.48;;;10.40;;
51654;SDS011;37732;53.106;7.030;2023-12-04T13:25:26;13.23;;;11.00;;
51654;SDS011;37732;53.106;7.030;2023-12-04T13:27:53;12.98;;;10.50;;
51654;SDS011;37732;53.106;7.030;2023-12-04T13:30:18;11.73;;;9.85;;
51654;SDS011;37732;53.106;7.030;2023-12-04T13:32:45;13.50;;;10.88;;
51654;SDS011;37732;53.106;7.030;2023-12-04T13:35:11;11.88;;;9.82;;
51654;SDS011;37732;53.106;7.030;2023-12-04T13:37:36;12.10;;;9.82;;
51654;SDS011;37732;53.106;7.030;2023-12-04T13:40:04;13.30;;;10.40;;
51654;SDS011;37732;53.106;7.030;2023-12-04T13:42:33;12.90;;;9.95;;
51654;SDS011;37732;53.106;7.030;2023-12-04T13:45:17;13.85;;;10.52;;
51654;SDS011;37732;53.106;7.030;2023-12-04T13:47:46;11.82;;;9.43;;
51654;SDS011;37732;53.106;7.030;2023-12-04T13:50:13;14.27;;;10.25;;
51654;SDS011;37732;53.106;7.030;2023-12-04T13:52:39;14.48;;;11.63;;
51654;SDS011;37732;53.106;7.030;2023-12-04T13:55:06;13.43;;;10.63;;
51654;SDS011;37732;53.106;7.030;2023-12-04T13:58:01;13.00;;;10.75;;
51654;SDS011;37732;53.106;7.030;2023-12-04T14:00:27;12.88;;;10.25;;
51654;SDS011;37732;53.106;7.030;2023-12-04T14:02:53;12.38;;;10.55;;
51654;SDS011;37732;53.106;7.030;2023-12-04T14:05:25;13.85;;;10.85;;
51654;SDS011;37732;53.106;7.030;2023-12-04T14:07:51;12.55;;;10.43;;
51654;SDS011;37732;53.106;7.030;2023-12-04T14:10:16;13.00;;;10.45;;
51654;SDS011;37732;53.106;7.030;2023-12-04T14:12:42;14.57;;;11.00;;
51654;SDS011;37732;53.106;7.030;2023-12-04T14:15:08;13.20;;;10.15;;
51654;SDS011;37732;53.106;7.030;2023-12-04T14:17:34;13.93;;;10.82;;
51654;SDS011;37732;53.106;7.030;2023-12-04T14:20:00;13.75;;;10.27;;
51654;SDS011;37732;53.106;7.030;2023-12-04T14:22:28;13.23;;;10.48;;
51654;SDS011;37732;53.106;7.030;2023-12-04T14:24:53;13.88;;;10.57;;
51654;SDS011;37732;53.106;7.030;2023-12-04T14:27:19;12.20;;;9.60;;